sensor_id;sensor_type;location;lat;lon;timestamp;temperature;humidity
11540;DHT22;5826;54.756;9.192;2022-09-24T00:00:24;12.70;99.90
11540;DHT22;5826;54.756;9.192;2022-09-24T00:02:51;12.70;99.90
11540;DHT22;5826;54.756;9.192;2022-09-24T00:05:16;12.70;99.90
11540;DHT22;5826;54.756;9.192;2022-09-24T00:07:42;12.70;99.90
11540;DHT22;5826;54.756;9.192;2022-09-24T00:10:07;12.70;99.90
11540;DHT22;5826;54.756;9.192;2022-09-24T00:12:33;12.70;99.90
11540;DHT22;5826;54.756;9.192;2022-09-24T00:14:59;12.70;99.90
11540;DHT22;5826;54.756;9.192;2022-09-24T00:17:24;12.70;99.90
11540;DHT22;5826;54.756;9.192;2022-09-24T00:19:50;12.70;99.90
11540;DHT22;5826;54.756;9.192;2022-09-24T00:22:15;12.70;99.90
11540;DHT22;5826;54.756;9.192;2022-09-24T00:24:40;12.70;99.90
11540;DHT22;5826;54.756;9.192;2022-09-24T00:27:26;12.70;99.90
11540;DHT22;5826;54.756;9.192;2022-09-24T00:29:51;12.80;99.90
11540;DHT22;5826;54.756;9.192;2022-09-24T00:32:17;12.80;99.90
11540;DHT22;5826;54.756;9.192;2022-09-24T00:34:42;12.80;99.90
11540;DHT22;5826;54.756;9.192;2022-09-24T00:37:08;12.80;99.90
11540;DHT22;5826;54.756;9.192;2022-09-24T00:39:33;12.80;99.90
11540;DHT22;5826;54.756;9.192;2022-09-24T00:41:59;12.80;99.90
11540;DHT22;5826;54.756;9.192;2022-09-24T00:44:44;12.80;99.90
11540;DHT22;5826;54.756;9.192;2022-09-24T00:50:02;12.80;99.90
11540;DHT22;5826;54.756;9.192;2022-09-24T00:52:31;12.70;99.90
11540;DHT22;5826;54.756;9.192;2022-09-24T00:54:56;12.70;99.90
11540;DHT22;5826;54.756;9.192;2022-09-24T00:57:22;12.70;99.90
11540;DHT22;5826;54.756;9.192;2022-09-24T00:59:48;12.70;99.90
11540;DHT22;5826;54.756;9.192;2022-09-24T01:02:14;12.70;99.90
11540;DHT22;5826;54.756;9.192;2022-09-24T01:04:40;12.70;99.90
11540;DHT22;5826;54.756;9.192;2022-09-24T01:07:05;12.70;99.90
11540;DHT22;5826;54.756;9.192;2022-09-24T01:09:31;12.70;99.90
11540;DHT22;5826;54.756;9.192;2022-09-24T01:12:13;12.70;99.90
11540;DHT22;5826;54.756;9.192;2022-09-24T01:17:32;12.80;99.90
11540;DHT22;5826;54.756;9.192;2022-09-24T01:25:37;12.80;99.90
11540;DHT22;5826;54.756;9.192;2022-09-24T01:30:44;12.70;99.90
11540;DHT22;5826;54.756;9.192;2022-09-24T01:33:16;12.70;99.90
11540;DHT22;5826;54.756;9.192;2022-09-24T01:35:49;12.70;99.90
11540;DHT22;5826;54.756;9.192;2022-09-24T01:38:19;12.70;99.90
11540;DHT22;5826;54.756;9.192;2022-09-24T01:40:46;12.70;99.90
11540;DHT22;5826;54.756;9.192;2022-09-24T01:43:14;12.70;99.90
11540;DHT22;5826;54.756;9.192;2022-09-24T01:45:40;12.70;99.90
11540;DHT22;5826;54.756;9.192;2022-09-24T01:48:06;12.70;99.90
11540;DHT22;5826;54.756;9.192;2022-09-24T01:53:32;12.70;99.90
11540;DHT22;5826;54.756;9.192;2022-09-24T01:56:04;12.60;99.90
11540;DHT22;5826;54.756;9.192;2022-09-24T01:58:36;12.60;99.90
11540;DHT22;5826;54.756;9.192;2022-09-24T02:01:09;12.60;99.90
11540;DHT22;5826;54.756;9.192;2022-09-24T02:03:40;12.60;99.90
11540;DHT22;5826;54.756;9.192;2022-09-24T02:06:15;12.60;99.90
11540;DHT22;5826;54.756;9.192;2022-09-24T02:08:46;12.60;99.90
11540;DHT22;5826;54.756;9.192;2022-09-24T02:11:20;12.60;99.90
11540;DHT22;5826;54.756;9.192;2022-09-24T02:13:50;12.60;99.90
11540;DHT22;5826;54.756;9.192;2022-09-24T02:16:23;12.60;99.90
11540;DHT22;5826;54.756;9.192;2022-09-24T02:18:51;12.60;99.90
11540;DHT22;5826;54.756;9.192;2022-09-24T02:21:19;12.60;99.90
11540;DHT22;5826;54.756;9.192;2022-09-24T02:23:53;12.60;99.90
11540;DHT22;5826;54.756;9.192;2022-09-24T02:26:22;12.60;99.90
11540;DHT22;5826;54.756;9.192;2022-09-24T02:28:47;12.60;99.90
11540;DHT22;5826;54.756;9.192;2022-09-24T02:31:37;12.60;99.90
11540;DHT22;5826;54.756;9.192;2022-09-24T02:34:05;12.60;99.90
11540;DHT22;5826;54.756;9.192;2022-09-24T02:37:03;12.60;99.90
11540;DHT22;5826;54.756;9.192;2022-09-24T02:39:29;12.60;99.90
11540;DHT22;5826;54.756;9.192;2022-09-24T02:41:56;12.60;99.90
11540;DHT22;5826;54.756;9.192;2022-09-24T02:44:22;12.60;99.90
11540;DHT22;5826;54.756;9.192;2022-09-24T02:46:48;12.60;99.90
11540;DHT22;5826;54.756;9.192;2022-09-24T02:49:15;12.50;99.90
11540;DHT22;5826;54.756;9.192;2022-09-24T02:51:41;12.60;99.90
11540;DHT22;5826;54.756;9.192;2022-09-24T02:54:07;12.50;99.90
11540;DHT22;5826;54.756;9.192;2022-09-24T02:56:33;12.50;99.90
11540;DHT22;5826;54.756;9.192;2022-09-24T02:58:59;12.60;99.90
11540;DHT22;5826;54.756;9.192;2022-09-24T03:01:27;12.50;99.90
11540;DHT22;5826;54.756;9.192;2022-09-24T03:03:52;12.50;99.90
11540;DHT22;5826;54.756;9.192;2022-09-24T03:06:18;12.50;99.90
11540;DHT22;5826;54.756;9.192;2022-09-24T03:08:43;12.50;99.90
11540;DHT22;5826;54.756;9.192;2022-09-24T03:11:10;12.50;99.90
11540;DHT22;5826;54.756;9.192;2022-09-24T03:13:36;12.50;99.90
11540;DHT22;5826;54.756;9.192;2022-09-24T03:16:03;12.50;99.90
11540;DHT22;5826;54.756;9.192;2022-09-24T03:18:29;12.50;99.90
11540;DHT22;5826;54.756;9.192;2022-09-24T03:20:59;12.50;99.90
11540;DHT22;5826;54.756;9.192;2022-09-24T03:23:25;12.50;99.90
11540;DHT22;5826;54.756;9.192;2022-09-24T03:25:51;12.50;99.90
11540;DHT22;5826;54.756;9.192;2022-09-24T03:28:16;12.50;99.90
11540;DHT22;5826;54.756;9.192;2022-09-24T03:30:43;12.50;99.90
11540;DHT22;5826;54.756;9.192;2022-09-24T03:33:40;12.50;99.90
11540;DHT22;5826;54.756;9.192;2022-09-24T03:36:17;12.50;99.90
11540;DHT22;5826;54.756;9.192;2022-09-24T03:38:46;12.50;99.90
11540;DHT22;5826;54.756;9.192;2022-09-24T03:41:13;12.50;99.90
11540;DHT22;5826;54.756;9.192;2022-09-24T03:43:39;12.50;99.90
11540;DHT22;5826;54.756;9.192;2022-09-24T03:46:06;12.50;99.90
11540;DHT22;5826;54.756;9.192;2022-09-24T03:48:33;12.50;99.90
11540;DHT22;5826;54.756;9.192;2022-09-24T03:51:18;12.50;99.90
11540;DHT22;5826;54.756;9.192;2022-09-24T03:53:44;12.50;99.90
11540;DHT22;5826;54.756;9.192;2022-09-24T03:56:10;12.50;99.90
11540;DHT22;5826;54.756;9.192;2022-09-24T03:58:36;12.50;99.90
11540;DHT22;5826;54.756;9.192;2022-09-24T04:01:07;12.50;99.90
11540;DHT22;5826;54.756;9.192;2022-09-24T04:03:32;12.50;99.90
11540;DHT22;5826;54.756;9.192;2022-09-24T04:05:58;12.50;99.90
11540;DHT22;5826;54.756;9.192;2022-09-24T04:08:24;12.50;99.90
11540;DHT22;5826;54.756;9.192;2022-09-24T04:10:50;12.50;99.90
11540;DHT22;5826;54.756;9.192;2022-09-24T04:13:17;12.50;99.90
11540;DHT22;5826;54.756;9.192;2022-09-24T04:15:42;12.40;99.90
11540;DHT22;5826;54.756;9.192;2022-09-24T04:18:08;12.40;99.90
11540;DHT22;5826;54.756;9.192;2022-09-24T04:20:34;12.40;99.90
11540;DHT22;5826;54.756;9.192;2022-09-24T04:23:00;12.40;99.90
11540;DHT22;5826;54.756;9.192;2022-09-24T04:25:27;12.40;99.90
11540;DHT22;5826;54.756;9.192;2022-09-24T04:27:56;12.40;99.90
11540;DHT22;5826;54.756;9.192;2022-09-24T04:30:23;12.40;99.90
11540;DHT22;5826;54.756;9.192;2022-09-24T04:32:49;12.40;99.90
11540;DHT22;5826;54.756;9.192;2022-09-24T04:35:18;12.40;99.90
11540;DHT22;5826;54.756;9.192;2022-09-24T04:37:45;12.40;99.90
11540;DHT22;5826;54.756;9.192;2022-09-24T04:40:11;12.40;99.90
11540;DHT22;5826;54.756;9.192;2022-09-24T04:42:41;12.40;99.90
11540;DHT22;5826;54.756;9.192;2022-09-24T04:45:08;12.40;99.90
11540;DHT22;5826;54.756;9.192;2022-09-24T04:47:34;12.40;99.90
11540;DHT22;5826;54.756;9.192;2022-09-24T04:50:00;12.40;99.90
11540;DHT22;5826;54.756;9.192;2022-09-24T04:52:27;12.40;99.90
11540;DHT22;5826;54.756;9.192;2022-09-24T04:54:54;12.40;99.90
11540;DHT22;5826;54.756;9.192;2022-09-24T04:57:22;12.40;99.90
11540;DHT22;5826;54.756;9.192;2022-09-24T04:59:47;12.40;99.90
11540;DHT22;5826;54.756;9.192;2022-09-24T05:02:13;12.40;99.90
11540;DHT22;5826;54.756;9.192;2022-09-24T05:04:38;12.40;99.90
11540;DHT22;5826;54.756;9.192;2022-09-24T05:07:04;12.40;99.90
11540;DHT22;5826;54.756;9.192;2022-09-24T05:09:30;12.40;99.90
11540;DHT22;5826;54.756;9.192;2022-09-24T05:11:58;12.40;99.90
11540;DHT22;5826;54.756;9.192;2022-09-24T05:14:24;12.40;99.90
11540;DHT22;5826;54.756;9.192;2022-09-24T05:16:50;12.40;99.90
11540;DHT22;5826;54.756;9.192;2022-09-24T05:19:15;12.40;99.90
11540;DHT22;5826;54.756;9.192;2022-09-24T05:21:41;12.40;99.90
11540;DHT22;5826;54.756;9.192;2022-09-24T05:24:06;12.40;99.90
11540;DHT22;5826;54.756;9.192;2022-09-24T05:26:32;12.40;99.90
11540;DHT22;5826;54.756;9.192;2022-09-24T05:29:16;12.40;99.90
11540;DHT22;5826;54.756;9.192;2022-09-24T05:31:42;12.40;99.90
11540;DHT22;5826;54.756;9.192;2022-09-24T05:34:07;12.40;99.90
11540;DHT22;5826;54.756;9.192;2022-09-24T05:36:33;12.40;99.90
11540;DHT22;5826;54.756;9.192;2022-09-24T05:38:58;12.40;99.90
11540;DHT22;5826;54.756;9.192;2022-09-24T05:41:24;12.40;99.90
11540;DHT22;5826;54.756;9.192;2022-09-24T05:43:49;12.40;99.90
11540;DHT22;5826;54.756;9.192;2022-09-24T05:46:15;12.40;99.90
11540;DHT22;5826;54.756;9.192;2022-09-24T05:48:41;12.30;99.90
11540;DHT22;5826;54.756;9.192;2022-09-24T05:51:06;12.30;99.90
11540;DHT22;5826;54.756;9.192;2022-09-24T05:53:32;12.30;99.90
11540;DHT22;5826;54.756;9.192;2022-09-24T05:55:58;12.30;99.90
11540;DHT22;5826;54.756;9.192;2022-09-24T05:58:24;12.30;99.90
11540;DHT22;5826;54.756;9.192;2022-09-24T06:00:52;12.30;99.90
11540;DHT22;5826;54.756;9.192;2022-09-24T06:03:18;12.30;99.90
11540;DHT22;5826;54.756;9.192;2022-09-24T06:05:46;12.40;99.90
11540;DHT22;5826;54.756;9.192;2022-09-24T06:08:13;12.40;99.90
11540;DHT22;5826;54.756;9.192;2022-09-24T06:10:43;12.40;99.90
11540;DHT22;5826;54.756;9.192;2022-09-24T06:13:10;12.40;99.90
11540;DHT22;5826;54.756;9.192;2022-09-24T06:15:40;12.40;99.90
11540;DHT22;5826;54.756;9.192;2022-09-24T06:18:07;12.50;99.90
11540;DHT22;5826;54.756;9.192;2022-09-24T06:20:33;12.50;99.90
11540;DHT22;5826;54.756;9.192;2022-09-24T06:22:59;12.50;99.90
11540;DHT22;5826;54.756;9.192;2022-09-24T06:25:25;12.50;99.90
11540;DHT22;5826;54.756;9.192;2022-09-24T06:27:59;12.50;99.90
11540;DHT22;5826;54.756;9.192;2022-09-24T06:30:33;12.50;99.90
11540;DHT22;5826;54.756;9.192;2022-09-24T06:33:03;12.60;99.90
11540;DHT22;5826;54.756;9.192;2022-09-24T06:35:32;12.60;99.90
11540;DHT22;5826;54.756;9.192;2022-09-24T06:37:57;12.80;99.90
11540;DHT22;5826;54.756;9.192;2022-09-24T06:40:23;12.60;99.90
11540;DHT22;5826;54.756;9.192;2022-09-24T06:42:51;12.70;99.90
11540;DHT22;5826;54.756;9.192;2022-09-24T06:45:17;12.70;99.90
11540;DHT22;5826;54.756;9.192;2022-09-24T06:47:43;12.70;99.90
11540;DHT22;5826;54.756;9.192;2022-09-24T06:50:08;12.70;99.90
11540;DHT22;5826;54.756;9.192;2022-09-24T06:52:34;12.70;99.90
11540;DHT22;5826;54.756;9.192;2022-09-24T06:54:59;12.80;99.90
11540;DHT22;5826;54.756;9.192;2022-09-24T06:57:25;12.80;99.90
11540;DHT22;5826;54.756;9.192;2022-09-24T06:59:50;12.80;99.90
11540;DHT22;5826;54.756;9.192;2022-09-24T07:02:16;12.80;99.90
11540;DHT22;5826;54.756;9.192;2022-09-24T07:04:41;12.90;99.90
11540;DHT22;5826;54.756;9.192;2022-09-24T07:07:07;12.90;99.90
11540;DHT22;5826;54.756;9.192;2022-09-24T07:09:51;12.90;99.90
11540;DHT22;5826;54.756;9.192;2022-09-24T07:12:16;13.70;99.90
11540;DHT22;5826;54.756;9.192;2022-09-24T07:14:42;12.90;99.90
11540;DHT22;5826;54.756;9.192;2022-09-24T07:17:07;12.90;99.90
11540;DHT22;5826;54.756;9.192;2022-09-24T07:19:33;12.90;99.90
11540;DHT22;5826;54.756;9.192;2022-09-24T07:21:58;12.90;99.90
11540;DHT22;5826;54.756;9.192;2022-09-24T07:24:24;12.90;99.90
11540;DHT22;5826;54.756;9.192;2022-09-24T07:26:49;13.00;99.90
11540;DHT22;5826;54.756;9.192;2022-09-24T07:29:15;13.00;99.90
11540;DHT22;5826;54.756;9.192;2022-09-24T07:31:40;13.00;99.90
11540;DHT22;5826;54.756;9.192;2022-09-24T07:34:07;13.00;99.90
11540;DHT22;5826;54.756;9.192;2022-09-24T07:36:33;13.00;99.90
11540;DHT22;5826;54.756;9.192;2022-09-24T07:38:58;13.10;99.90
11540;DHT22;5826;54.756;9.192;2022-09-24T07:41:25;13.10;99.90
11540;DHT22;5826;54.756;9.192;2022-09-24T07:43:51;13.10;99.90
11540;DHT22;5826;54.756;9.192;2022-09-24T07:46:16;13.20;99.90
11540;DHT22;5826;54.756;9.192;2022-09-24T07:48:42;13.20;99.90
11540;DHT22;5826;54.756;9.192;2022-09-24T07:51:10;13.30;99.90
11540;DHT22;5826;54.756;9.192;2022-09-24T07:53:36;13.40;99.90
11540;DHT22;5826;54.756;9.192;2022-09-24T07:56:02;13.40;99.90
11540;DHT22;5826;54.756;9.192;2022-09-24T07:58:29;13.50;99.90
11540;DHT22;5826;54.756;9.192;2022-09-24T08:00:58;13.50;99.90
11540;DHT22;5826;54.756;9.192;2022-09-24T08:03:25;13.60;99.90
11540;DHT22;5826;54.756;9.192;2022-09-24T08:05:50;13.60;99.90
11540;DHT22;5826;54.756;9.192;2022-09-24T08:08:20;13.70;99.90
11540;DHT22;5826;54.756;9.192;2022-09-24T08:10:46;13.70;99.90
11540;DHT22;5826;54.756;9.192;2022-09-24T08:13:11;13.80;99.90
11540;DHT22;5826;54.756;9.192;2022-09-24T08:15:37;13.90;99.90
11540;DHT22;5826;54.756;9.192;2022-09-24T08:18:03;13.90;99.90
11540;DHT22;5826;54.756;9.192;2022-09-24T08:20:31;14.00;99.90
11540;DHT22;5826;54.756;9.192;2022-09-24T08:23:00;14.10;99.90
11540;DHT22;5826;54.756;9.192;2022-09-24T08:25:26;14.10;99.90
11540;DHT22;5826;54.756;9.192;2022-09-24T08:27:52;14.20;99.90
11540;DHT22;5826;54.756;9.192;2022-09-24T08:30:17;14.20;99.90
11540;DHT22;5826;54.756;9.192;2022-09-24T08:32:46;14.30;99.90
11540;DHT22;5826;54.756;9.192;2022-09-24T08:35:15;14.40;99.90
11540;DHT22;5826;54.756;9.192;2022-09-24T08:37:40;14.40;99.90
11540;DHT22;5826;54.756;9.192;2022-09-24T08:40:12;14.50;99.90
11540;DHT22;5826;54.756;9.192;2022-09-24T08:42:49;14.50;99.90
11540;DHT22;5826;54.756;9.192;2022-09-24T08:45:17;14.60;99.90
11540;DHT22;5826;54.756;9.192;2022-09-24T08:48:12;14.60;99.90
11540;DHT22;5826;54.756;9.192;2022-09-24T08:50:47;14.70;99.90
11540;DHT22;5826;54.756;9.192;2022-09-24T08:55:59;14.70;99.90
11540;DHT22;5826;54.756;9.192;2022-09-24T08:58:56;14.80;99.90
11540;DHT22;5826;54.756;9.192;2022-09-24T09:02:26;14.80;99.90
11540;DHT22;5826;54.756;9.192;2022-09-24T09:04:41;14.80;99.90
11540;DHT22;5826;54.756;9.192;2022-09-24T09:07:21;14.90;99.90
11540;DHT22;5826;54.756;9.192;2022-09-24T09:09:53;14.90;99.90
11540;DHT22;5826;54.756;9.192;2022-09-24T09:12:34;15.00;99.90
11540;DHT22;5826;54.756;9.192;2022-09-24T09:15:19;15.00;99.90
11540;DHT22;5826;54.756;9.192;2022-09-24T09:17:53;15.10;99.90
11540;DHT22;5826;54.756;9.192;2022-09-24T09:20:37;15.10;99.90
11540;DHT22;5826;54.756;9.192;2022-09-24T09:23:20;15.10;99.90
11540;DHT22;5826;54.756;9.192;2022-09-24T09:25:51;15.20;99.90
11540;DHT22;5826;54.756;9.192;2022-09-24T09:28:18;15.20;99.90
11540;DHT22;5826;54.756;9.192;2022-09-24T09:36:41;15.30;99.90
11540;DHT22;5826;54.756;9.192;2022-09-24T09:42:30;15.50;99.90
11540;DHT22;5826;54.756;9.192;2022-09-24T09:45:34;15.50;99.90
11540;DHT22;5826;54.756;9.192;2022-09-24T09:48:02;15.60;99.90
11540;DHT22;5826;54.756;9.192;2022-09-24T09:50:42;15.60;99.90
11540;DHT22;5826;54.756;9.192;2022-09-24T09:53:27;15.60;99.90
11540;DHT22;5826;54.756;9.192;2022-09-24T09:56:04;15.60;99.90
11540;DHT22;5826;54.756;9.192;2022-09-24T09:58:35;15.60;99.90
11540;DHT22;5826;54.756;9.192;2022-09-24T10:01:19;15.60;99.90
11540;DHT22;5826;54.756;9.192;2022-09-24T10:03:56;15.50;99.90
11540;DHT22;5826;54.756;9.192;2022-09-24T10:06:28;15.50;99.90
11540;DHT22;5826;54.756;9.192;2022-09-24T10:09:12;15.60;99.90
11540;DHT22;5826;54.756;9.192;2022-09-24T10:11:38;15.60;99.90
11540;DHT22;5826;54.756;9.192;2022-09-24T10:14:07;15.60;99.90
11540;DHT22;5826;54.756;9.192;2022-09-24T10:16:42;15.60;99.90
11540;DHT22;5826;54.756;9.192;2022-09-24T10:21:45;15.60;99.90
11540;DHT22;5826;54.756;9.192;2022-09-24T10:24:14;15.50;99.90
11540;DHT22;5826;54.756;9.192;2022-09-24T10:26:43;15.50;99.90
11540;DHT22;5826;54.756;9.192;2022-09-24T10:29:17;15.60;99.90
11540;DHT22;5826;54.756;9.192;2022-09-24T10:32:03;15.60;99.90
11540;DHT22;5826;54.756;9.192;2022-09-24T10:34:28;16.10;99.90
11540;DHT22;5826;54.756;9.192;2022-09-24T10:37:03;15.60;99.90
11540;DHT22;5826;54.756;9.192;2022-09-24T10:39:29;15.60;99.90
11540;DHT22;5826;54.756;9.192;2022-09-24T10:41:56;15.60;99.90
11540;DHT22;5826;54.756;9.192;2022-09-24T10:44:25;15.60;99.90
11540;DHT22;5826;54.756;9.192;2022-09-24T10:47:21;15.50;99.90
11540;DHT22;5826;54.756;9.192;2022-09-24T10:55:41;15.40;99.90
11540;DHT22;5826;54.756;9.192;2022-09-24T10:58:20;15.40;99.90
11540;DHT22;5826;54.756;9.192;2022-09-24T11:01:14;15.40;99.90
11540;DHT22;5826;54.756;9.192;2022-09-24T11:03:53;15.40;99.90
11540;DHT22;5826;54.756;9.192;2022-09-24T11:06:31;15.40;99.90
11540;DHT22;5826;54.756;9.192;2022-09-24T11:11:55;15.50;99.90
11540;DHT22;5826;54.756;9.192;2022-09-24T11:31:35;15.30;99.90
11540;DHT22;5826;54.756;9.192;2022-09-24T11:37:04;15.30;99.90
11540;DHT22;5826;54.756;9.192;2022-09-24T11:50:58;15.50;99.90
11540;DHT22;5826;54.756;9.192;2022-09-24T11:58:55;15.70;99.90
11540;DHT22;5826;54.756;9.192;2022-09-24T12:01:28;15.80;99.90
11540;DHT22;5826;54.756;9.192;2022-09-24T12:04:10;15.80;99.90
11540;DHT22;5826;54.756;9.192;2022-09-24T12:06:49;15.80;99.90
11540;DHT22;5826;54.756;9.192;2022-09-24T12:09:20;15.80;99.90
11540;DHT22;5826;54.756;9.192;2022-09-24T12:11:54;15.80;99.90
11540;DHT22;5826;54.756;9.192;2022-09-24T12:14:35;15.80;99.90
11540;DHT22;5826;54.756;9.192;2022-09-24T12:17:06;15.80;99.90
11540;DHT22;5826;54.756;9.192;2022-09-24T12:19:54;15.80;99.90
11540;DHT22;5826;54.756;9.192;2022-09-24T12:22:22;15.80;99.90
11540;DHT22;5826;54.756;9.192;2022-09-24T12:24:53;15.70;99.90
11540;DHT22;5826;54.756;9.192;2022-09-24T12:27:23;15.70;99.90
11540;DHT22;5826;54.756;9.192;2022-09-24T12:33:39;15.70;99.90
11540;DHT22;5826;54.756;9.192;2022-09-24T12:36:14;15.70;99.90
11540;DHT22;5826;54.756;9.192;2022-09-24T12:38:46;15.60;99.90
11540;DHT22;5826;54.756;9.192;2022-09-24T12:41:30;15.60;99.90
11540;DHT22;5826;54.756;9.192;2022-09-24T12:44:04;15.60;99.90
11540;DHT22;5826;54.756;9.192;2022-09-24T12:46:44;15.60;99.90
11540;DHT22;5826;54.756;9.192;2022-09-24T12:51:49;15.70;99.90
11540;DHT22;5826;54.756;9.192;2022-09-24T12:57:13;15.70;99.90
11540;DHT22;5826;54.756;9.192;2022-09-24T12:59:57;15.70;99.90
11540;DHT22;5826;54.756;9.192;2022-09-24T13:02:28;15.70;99.90
11540;DHT22;5826;54.756;9.192;2022-09-24T13:10:25;15.70;99.90
11540;DHT22;5826;54.756;9.192;2022-09-24T13:12:51;15.60;99.90
11540;DHT22;5826;54.756;9.192;2022-09-24T13:18:18;15.70;99.90
11540;DHT22;5826;54.756;9.192;2022-09-24T13:20:56;15.60;99.90
11540;DHT22;5826;54.756;9.192;2022-09-24T13:26:05;15.60;99.90
11540;DHT22;5826;54.756;9.192;2022-09-24T13:28:49;15.60;99.90
11540;DHT22;5826;54.756;9.192;2022-09-24T13:36:46;15.60;99.90
11540;DHT22;5826;54.756;9.192;2022-09-24T13:42:13;15.60;99.90
11540;DHT22;5826;54.756;9.192;2022-09-24T13:44:43;15.50;99.90
11540;DHT22;5826;54.756;9.192;2022-09-24T13:47:21;15.40;99.90
11540;DHT22;5826;54.756;9.192;2022-09-24T13:49:51;15.40;99.90
11540;DHT22;5826;54.756;9.192;2022-09-24T13:52:29;15.40;99.90
11540;DHT22;5826;54.756;9.192;2022-09-24T13:54:57;15.40;99.90
11540;DHT22;5826;54.756;9.192;2022-09-24T13:57:26;15.40;99.90
11540;DHT22;5826;54.756;9.192;2022-09-24T14:00:14;15.40;99.90
11540;DHT22;5826;54.756;9.192;2022-09-24T14:02:43;15.40;99.90
11540;DHT22;5826;54.756;9.192;2022-09-24T14:05:15;15.40;99.90
11540;DHT22;5826;54.756;9.192;2022-09-24T14:07:42;15.40;99.90
11540;DHT22;5826;54.756;9.192;2022-09-24T14:10:16;15.40;99.90
11540;DHT22;5826;54.756;9.192;2022-09-24T14:12:41;15.40;99.90
11540;DHT22;5826;54.756;9.192;2022-09-24T14:15:16;15.40;99.90
11540;DHT22;5826;54.756;9.192;2022-09-24T14:17:42;15.40;99.90
11540;DHT22;5826;54.756;9.192;2022-09-24T14:20:12;15.40;99.90
11540;DHT22;5826;54.756;9.192;2022-09-24T14:22:42;15.30;99.90
11540;DHT22;5826;54.756;9.192;2022-09-24T14:25:16;15.30;99.90
11540;DHT22;5826;54.756;9.192;2022-09-24T14:27:44;15.30;99.90
11540;DHT22;5826;54.756;9.192;2022-09-24T14:30:19;15.30;99.90
11540;DHT22;5826;54.756;9.192;2022-09-24T14:32:50;15.30;99.90
11540;DHT22;5826;54.756;9.192;2022-09-24T14:35:29;15.30;99.90
11540;DHT22;5826;54.756;9.192;2022-09-24T14:38:03;15.30;99.90
11540;DHT22;5826;54.756;9.192;2022-09-24T14:40:42;15.30;99.90
11540;DHT22;5826;54.756;9.192;2022-09-24T14:46:06;15.30;99.90
11540;DHT22;5826;54.756;9.192;2022-09-24T14:48:34;15.30;99.90
11540;DHT22;5826;54.756;9.192;2022-09-24T14:51:00;15.30;99.90
11540;DHT22;5826;54.756;9.192;2022-09-24T14:53:31;15.30;99.90
11540;DHT22;5826;54.756;9.192;2022-09-24T14:55:59;15.30;99.90
11540;DHT22;5826;54.756;9.192;2022-09-24T15:00:59;15.30;99.90
11540;DHT22;5826;54.756;9.192;2022-09-24T15:03:43;15.30;99.90
11540;DHT22;5826;54.756;9.192;2022-09-24T15:08:57;15.30;99.90
11540;DHT22;5826;54.756;9.192;2022-09-24T15:11:26;15.30;99.90
11540;DHT22;5826;54.756;9.192;2022-09-24T15:14:19;15.30;99.90
11540;DHT22;5826;54.756;9.192;2022-09-24T15:16:50;15.30;99.90
11540;DHT22;5826;54.756;9.192;2022-09-24T15:19:19;15.40;99.90
11540;DHT22;5826;54.756;9.192;2022-09-24T15:21:46;15.40;99.90
11540;DHT22;5826;54.756;9.192;2022-09-24T15:24:13;15.40;99.90
11540;DHT22;5826;54.756;9.192;2022-09-24T15:26:41;15.40;99.90
11540;DHT22;5826;54.756;9.192;2022-09-24T15:29:16;15.40;99.90
11540;DHT22;5826;54.756;9.192;2022-09-24T15:31:42;15.40;99.90
11540;DHT22;5826;54.756;9.192;2022-09-24T15:34:08;15.50;99.90
11540;DHT22;5826;54.756;9.192;2022-09-24T15:36:34;15.50;99.90
11540;DHT22;5826;54.756;9.192;2022-09-24T15:39:01;15.50;99.90
11540;DHT22;5826;54.756;9.192;2022-09-24T15:41:27;15.50;99.90
11540;DHT22;5826;54.756;9.192;2022-09-24T15:43:57;15.50;99.90
11540;DHT22;5826;54.756;9.192;2022-09-24T15:46:23;15.40;99.90
11540;DHT22;5826;54.756;9.192;2022-09-24T15:48:48;15.40;99.90
11540;DHT22;5826;54.756;9.192;2022-09-24T15:51:16;15.30;99.90
11540;DHT22;5826;54.756;9.192;2022-09-24T15:53:43;15.30;99.90
11540;DHT22;5826;54.756;9.192;2022-09-24T15:56:09;15.20;99.90
11540;DHT22;5826;54.756;9.192;2022-09-24T15:58:35;15.20;99.90
11540;DHT22;5826;54.756;9.192;2022-09-24T16:01:01;15.20;99.90
11540;DHT22;5826;54.756;9.192;2022-09-24T16:03:29;15.20;99.90
11540;DHT22;5826;54.756;9.192;2022-09-24T16:05:55;15.20;99.90
11540;DHT22;5826;54.756;9.192;2022-09-24T16:08:22;15.20;99.90
11540;DHT22;5826;54.756;9.192;2022-09-24T16:10:48;15.20;99.90
11540;DHT22;5826;54.756;9.192;2022-09-24T16:13:14;15.10;99.90
11540;DHT22;5826;54.756;9.192;2022-09-24T16:15:40;15.10;99.90
11540;DHT22;5826;54.756;9.192;2022-09-24T16:18:06;15.10;99.90
11540;DHT22;5826;54.756;9.192;2022-09-24T16:20:36;15.10;99.90
11540;DHT22;5826;54.756;9.192;2022-09-24T16:23:02;15.10;99.90
11540;DHT22;5826;54.756;9.192;2022-09-24T16:25:28;15.10;99.90
11540;DHT22;5826;54.756;9.192;2022-09-24T16:27:53;15.10;99.90
11540;DHT22;5826;54.756;9.192;2022-09-24T16:30:21;15.10;99.90
11540;DHT22;5826;54.756;9.192;2022-09-24T16:32:46;15.10;99.90
11540;DHT22;5826;54.756;9.192;2022-09-24T16:35:12;15.10;99.90
11540;DHT22;5826;54.756;9.192;2022-09-24T16:37:38;15.00;99.90
11540;DHT22;5826;54.756;9.192;2022-09-24T16:40:04;15.00;99.90
11540;DHT22;5826;54.756;9.192;2022-09-24T16:42:30;15.00;99.90
11540;DHT22;5826;54.756;9.192;2022-09-24T16:44:55;14.90;99.90
11540;DHT22;5826;54.756;9.192;2022-09-24T16:47:20;14.90;99.90
11540;DHT22;5826;54.756;9.192;2022-09-24T16:49:46;14.90;99.90
11540;DHT22;5826;54.756;9.192;2022-09-24T16:52:12;14.90;99.90
11540;DHT22;5826;54.756;9.192;2022-09-24T16:54:38;14.80;99.90
11540;DHT22;5826;54.756;9.192;2022-09-24T16:57:04;14.80;99.90
11540;DHT22;5826;54.756;9.192;2022-09-24T16:59:31;14.80;99.90
11540;DHT22;5826;54.756;9.192;2022-09-24T17:01:56;14.70;99.90
11540;DHT22;5826;54.756;9.192;2022-09-24T17:04:23;14.70;99.90
11540;DHT22;5826;54.756;9.192;2022-09-24T17:06:52;14.70;99.90
11540;DHT22;5826;54.756;9.192;2022-09-24T17:09:18;14.60;99.90
11540;DHT22;5826;54.756;9.192;2022-09-24T17:12:02;14.60;99.90
11540;DHT22;5826;54.756;9.192;2022-09-24T17:14:28;14.60;99.90
11540;DHT22;5826;54.756;9.192;2022-09-24T17:16:53;14.60;99.90
11540;DHT22;5826;54.756;9.192;2022-09-24T17:19:19;14.60;99.90
11540;DHT22;5826;54.756;9.192;2022-09-24T17:21:44;14.50;99.90
11540;DHT22;5826;54.756;9.192;2022-09-24T17:24:17;14.50;99.90
11540;DHT22;5826;54.756;9.192;2022-09-24T17:26:43;14.50;99.90
11540;DHT22;5826;54.756;9.192;2022-09-24T17:29:09;14.50;99.90
11540;DHT22;5826;54.756;9.192;2022-09-24T17:31:35;14.50;99.90
11540;DHT22;5826;54.756;9.192;2022-09-24T17:34:03;14.40;99.90
11540;DHT22;5826;54.756;9.192;2022-09-24T17:36:30;14.40;99.90
11540;DHT22;5826;54.756;9.192;2022-09-24T17:38:57;14.40;99.90
11540;DHT22;5826;54.756;9.192;2022-09-24T17:41:23;14.50;99.90
11540;DHT22;5826;54.756;9.192;2022-09-24T17:43:50;14.40;99.90
11540;DHT22;5826;54.756;9.192;2022-09-24T17:46:18;14.40;99.90
11540;DHT22;5826;54.756;9.192;2022-09-24T17:48:48;14.30;99.90
11540;DHT22;5826;54.756;9.192;2022-09-24T17:51:18;14.40;99.90
11540;DHT22;5826;54.756;9.192;2022-09-24T17:53:48;14.30;99.90